Aérodrome :
LOGIN :

S'inscrire | Disclaimer

   EN    FR    IT 

 










Légende :    VFR   VFR Marginal   IFR   IFR Intensif   IFR Très Intensif
Visi : 
Plafond : 
>= 8 km
>= 3000ft
5 à 8 km
1000 à 3000 ft
1500m à 5 km
500 à 1000 ft
800 à 1500m
200 à 500 ft
< 800m
< 200 ft
Symboles :   Orages  Brouillard  Fortes neiges  Fortes précipitations  Vent > 20 kt
SIGMETs :   Divers  Orages  Givrage  Turbulence  Onde Orograph.  Cendres Volcan.







- Altitude de l'aérodrome : 37 ft


EHVL - Vlieland Heliport

DERNIER METAR :
  • 251525Z AUTO 35020KT 8000 HZ FEW015 SCT022 BKN025 08/05 Q1026 WHT

METARs EXPIRÉS :
  • 251516Z AUTO 35020KT 9000 HZ FEW017 SCT024 BKN028 08/05 Q1026 WHT
  • 251455Z AUTO 35026KT 9000 HZ FEW016 SCT019 BKN027 09/05 Q1025 WHT
  • 251434Z AUTO 34028KT 9000 HZ SCT016 BKN019 BKN026 08/05 Q1025 WHT
  • 251429Z AUTO 34027KT 9000 HZ FEW016 BKN029 09/05 Q1025 BLU
  • 251415Z AUTO 34028KT 9000 HZ FEW016 SCT025 OVC030 09/05 Q1025 BLU
  • 251411Z AUTO 34028KT 8000 HZ FEW016 SCT019 OVC029 09/05 Q1025 WHT
  • 251355Z AUTO 34027KT 8000 HZ FEW026 BKN030 BKN034 08/05 Q1024 BLU
  • 251325Z AUTO 34029KT 8000 HZ BKN016 OVC032 09/05 Q1024 WHT
  • 251305Z AUTO 33026KT 8000 HZ SCT016 BKN035 OVC039 09/05 Q1024 WHT
  • 251255Z AUTO 33027KT 8000 HZ SCT037 09/06 Q1024 BLU

Prévision TAF périmée.
Pas de NOTAMs connus pour ce terrain.



MET'MAP, la Météo Aéronautique d'un coup d'oeil ! - Copyright ORBIFLY Décembre 2007 - Disclaimer

ORBIFLY MET'MAP TEAM :

Programmation & Développement : Alexandra Zaïnal
Conception & Développement : Baudouin d'Aumeries
Co-Programmation & Développement : Marc-Olivier Méhu
Soutien technique & logistique : Manuel Goepfert

Contact : metmap@orbifly.com




SOURCES & CREDITS :

   NOAA